Skip to main content

NOAA/GLERL Met Station at Muskegon, MI

Previous 3 Hours (2 minute increments)
See also Previous 5 Days (top of hour)
Jump down to Data
Switch to [English][Metric]
Zoom: Click and drag, Pan: shift-click and drag, Unzoom: double-click, Unzoom All






See also 1-day windrose plot


NOAA/GLERL Met Station at Muskegon, MI

Previous 3 Hours (2 minute increments)
See also Previous 5 Days (top of hour only)
Jump up to Graphs
Switch to [English][Metric]
                  Wind  Wind  Wind   Air   Dew   Rel     Sta   PAR
                   Spd   Gst   Dir  Temp    Pt   Hum    Pres uE/m2/
YYYY-MM-DD   EDT   kts   kts   deg     F     F     %   in Hg   sec
2024-06-19 10:36 -99.0 -99.0   -99  71.1  65.5  82.2   29.56  1580
2024-06-19 10:34 -99.0 -99.0   -99  71.1  65.7  83.1   29.56  1578
2024-06-19 10:32 -99.0 -99.0   -99  70.5  65.3  83.3   29.55  1576
2024-06-19 10:30 -99.0 -99.0   -99  70.9  65.3  82.6   29.55  1571
2024-06-19 10:28 -99.0 -99.0   -99  71.1  65.5  82.4   29.55  1566
2024-06-19 10:26 -99.0 -99.0   -99  70.9  65.5  82.8   29.55  1563
2024-06-19 10:24 -99.0 -99.0   -99  71.1  65.5  82.5   29.55  1562
2024-06-19 10:22 -99.0 -99.0   -99  71.4  65.5  81.6   29.56  1563
2024-06-19 10:20 -99.0 -99.0   -99  71.6  66.0  82.6   29.55  1558
2024-06-19 10:18 -99.0 -99.0   -99  71.4  66.2  83.3   29.55  1554
2024-06-19 10:16 -99.0 -99.0   -99  71.2  66.0  83.2   29.55  1554
2024-06-19 10:14 -99.0 -99.0   -99  71.2  65.7  82.7   29.55  1552
2024-06-19 10:12 -99.0 -99.0   -99  71.1  65.7  82.9   29.55  1548
2024-06-19 10:10 -99.0 -99.0   -99  71.2  65.7  82.7   29.55  1547
2024-06-19 10:08 -99.0 -99.0   -99  71.1  65.5  82.7   29.55  1542
2024-06-19 10:06 -99.0 -99.0   -99  70.9  65.5  82.9   29.55  1540
2024-06-19 10:04 -99.0 -99.0   -99  70.9  65.5  82.9   29.55  1538
2024-06-19 10:02 -99.0 -99.0   -99  70.7  65.3  83.0   29.55  1532
2024-06-19 10:00 -99.0 -99.0   -99  70.5  65.3  83.4   29.55  1531
2024-06-19 09:58 -99.0 -99.0   -99  70.3  65.3  84.0   29.55  1531
2024-06-19 09:56 -99.0 -99.0   -99  70.3  65.3  84.0   29.55  1526
2024-06-19 09:54 -99.0 -99.0   -99  70.3  65.3  83.8   29.55  1522
2024-06-19 09:52 -99.0 -99.0   -99  70.3  65.1  83.9   29.55  1516
2024-06-19 09:50 -99.0 -99.0   -99  70.2  65.1  83.8   29.55  1515
2024-06-19 09:48 -99.0 -99.0   -99  70.2  64.9  83.8   29.55  1511
2024-06-19 09:46 -99.0 -99.0   -99  70.2  65.1  83.9   29.55  1503
2024-06-19 09:44 -99.0 -99.0   -99  70.2  65.1  84.2   29.55  1503
2024-06-19 09:42 -99.0 -99.0   -99  70.0  65.1  84.6   29.55  1510
2024-06-19 09:40 -99.0 -99.0   -99  69.6  65.1  85.5   29.55  1515
2024-06-19 09:38 -99.0 -99.0   -99  69.6  65.5  86.1   29.55  1518
2024-06-19 09:36 -99.0 -99.0   -99  69.4  65.1  85.7   29.55  1531
2024-06-19 09:34 -99.0 -99.0   -99  69.8  65.7  86.4   29.55  1542
2024-06-19 09:32 -99.0 -99.0   -99  69.6  65.5  86.5   29.55  1528
2024-06-19 09:30 -99.0 -99.0   -99  69.6  65.5  86.6   29.55  1548
2024-06-19 09:28 -99.0 -99.0   -99  69.6  65.5  86.8   29.55  1541
2024-06-19 09:26 -99.0 -99.0   -99  69.3  65.3  87.2   29.55  1556
2024-06-19 09:24 -99.0 -99.0   -99  69.1  65.1  87.0   29.55  1255
2024-06-19 09:22 -99.0 -99.0   -99  69.3  65.1  86.3   29.55   760
2024-06-19 09:20 -99.0 -99.0   -99  69.6  65.3  86.2   29.55  1182
2024-06-19 09:18 -99.0 -99.0   -99  69.8  65.5  86.2   29.55  1249
2024-06-19 09:16 -99.0 -99.0   -99  69.4  65.1  86.2   29.55  1563
2024-06-19 09:14 -99.0 -99.0   -99  69.4  65.1  86.1   29.55  1540
2024-06-19 09:12 -99.0 -99.0   -99  69.4  65.1  86.0   29.55  1126
2024-06-19 09:10 -99.0 -99.0   -99  69.3  65.1  86.7   29.55  1331
2024-06-19 09:08 -99.0 -99.0   -99  69.3  65.3  87.0   29.55  1587
2024-06-19 09:06 -99.0 -99.0   -99  69.1  65.1  87.1   29.55   824
2024-06-19 09:04 -99.0 -99.0   -99  69.1  65.3  87.4   29.55  1138
2024-06-19 09:02 -99.0 -99.0   -99  69.1  65.1  87.1   29.54   962
2024-06-19 09:00 -99.0 -99.0   -99  69.3  65.1  86.6   29.54   692
2024-06-19 08:58 -99.0 -99.0   -99  69.4  65.3  86.6   29.54   952
2024-06-19 08:56 -99.0 -99.0   -99  69.3  65.1  86.7   29.54  1365
2024-06-19 08:54 -99.0 -99.0   -99  69.3  65.3  87.3   29.54  1454
2024-06-19 08:52 -99.0 -99.0   -99  68.9  65.1  87.9   29.54  1192
2024-06-19 08:50 -99.0 -99.0   -99  68.7  65.1  88.4   29.54   962
2024-06-19 08:48 -99.0 -99.0   -99  68.7  65.3  88.8   29.54   804
2024-06-19 08:46 -99.0 -99.0   -99  68.7  65.3  89.0   29.54   656
2024-06-19 08:44 -99.0 -99.0   -99  68.7  65.3  88.9   29.54   521
2024-06-19 08:42 -99.0 -99.0   -99  68.7  65.3  88.7   29.54   495
2024-06-19 08:40 -99.0 -99.0   -99  68.7  65.1  88.5   29.54   478
2024-06-19 08:38 -99.0 -99.0   -99  68.9  65.3  88.4   29.53   477
2024-06-19 08:36 -99.0 -99.0   -99  68.9  65.3  88.5   29.53   477
2024-06-19 08:34 -99.0 -99.0   -99  68.7  65.1  88.6   29.52   474
2024-06-19 08:32 -99.0 -99.0   -99  68.7  65.1  88.8   29.52   441
2024-06-19 08:30 -99.0 -99.0   -99  68.7  65.3  88.9   29.52   394
2024-06-19 08:28 -99.0 -99.0   -99  68.7  65.5  89.1   29.52   366
2024-06-19 08:26 -99.0 -99.0   -99  68.7  65.5  89.1   29.52   336
2024-06-19 08:24 -99.0 -99.0   -99  68.7  65.5  89.2   29.52   338
2024-06-19 08:22 -99.0 -99.0   -99  68.7  65.5  89.5   29.52   378
2024-06-19 08:20 -99.0 -99.0   -99  68.7  65.5  89.7   29.52   426
2024-06-19 08:18 -99.0 -99.0   -99  68.5  65.3  89.7   29.52   427
2024-06-19 08:16 -99.0 -99.0   -99  68.7  65.5  89.5   29.52   387
2024-06-19 08:14 -99.0 -99.0   -99  68.7  65.3  89.2   29.52   369
2024-06-19 08:12 -99.0 -99.0   -99  68.9  65.5  89.1   29.52   355
2024-06-19 08:10 -99.0 -99.0   -99  68.7  65.5  89.3   29.52   322
2024-06-19 08:08 -99.0 -99.0   -99  68.7  65.7  89.9   29.52   323
2024-06-19 08:06 -99.0 -99.0   -99  68.5  65.5  90.0   29.52   309
2024-06-19 08:04 -99.0 -99.0   -99  68.5  65.5  90.0   29.51   277
2024-06-19 08:02 -99.0 -99.0   -99  68.5  65.5  89.9   29.51   266
2024-06-19 08:00 -99.0 -99.0   -99  68.5  65.5  89.7   29.51   277
2024-06-19 07:58 -99.0 -99.0   -99  68.7  65.7  89.5   29.51   293
2024-06-19 07:56 -99.0 -99.0   -99  68.7  65.5  89.4   29.51   300
2024-06-19 07:54 -99.0 -99.0   -99  68.9  65.7  89.3   29.51   301
2024-06-19 07:52 -99.0 -99.0   -99  68.9  65.5  89.0   29.51   305
2024-06-19 07:50 -99.0 -99.0   -99  69.1  65.7  88.9   29.51   310
2024-06-19 07:48 -99.0 -99.0   -99  69.1  65.8  89.3   29.51   300
2024-06-19 07:46 -99.0 -99.0   -99  68.9  65.8  89.6   29.50   281
2024-06-19 07:44 -99.0 -99.0   -99  68.9  65.8  89.7   29.50   278
2024-06-19 07:42 -99.0 -99.0   -99  68.9  65.8  89.5   29.51   288
2024-06-19 07:40 -99.0 -99.0   -99  69.1  65.8  89.3   29.51   243
2024-06-19 07:38 -99.0 -99.0   -99  69.3  66.0  89.2   29.51   215
2024-06-19 07:36 -99.0 -99.0   -99  69.4  66.0  88.8   29.51   203